sensor_id;sensor_type;location;lat;lon;timestamp;pressure;altitude;pressure_sealevel;temperature;humidity
77452;BME280;66537;52.370;4.832;2023-05-10T00:01:01;100918.69;;;11.97;100.00
77452;BME280;66537;52.370;4.832;2023-05-10T00:03:27;100918.22;;;12.11;100.00
77452;BME280;66537;52.370;4.832;2023-05-10T00:05:53;100920.22;;;12.29;100.00
77452;BME280;66537;52.370;4.832;2023-05-10T00:08:18;100913.09;;;12.34;100.00
77452;BME280;66537;52.370;4.832;2023-05-10T00:10:43;100907.75;;;12.38;100.00
77452;BME280;66537;52.370;4.832;2023-05-10T00:13:09;100919.09;;;12.36;100.00
77452;BME280;66537;52.370;4.832;2023-05-10T00:15:34;100913.03;;;12.35;100.00
77452;BME280;66537;52.370;4.832;2023-05-10T00:18:00;100899.78;;;12.43;100.00
77452;BME280;66537;52.370;4.832;2023-05-10T00:20:25;100903.31;;;12.42;100.00
77452;BME280;66537;52.370;4.832;2023-05-10T00:22:50;100909.97;;;12.24;100.00
77452;BME280;66537;52.370;4.832;2023-05-10T00:25:16;100913.72;;;12.16;100.00
77452;BME280;66537;52.370;4.832;2023-05-10T00:27:41;100914.63;;;12.15;100.00
77452;BME280;66537;52.370;4.832;2023-05-10T00:30:07;100906.84;;;11.89;100.00
77452;BME280;66537;52.370;4.832;2023-05-10T00:32:32;100907.38;;;12.00;100.00
77452;BME280;66537;52.370;4.832;2023-05-10T00:34:58;100911.31;;;12.11;100.00
77452;BME280;66537;52.370;4.832;2023-05-10T00:37:23;100906.50;;;11.99;100.00
77452;BME280;66537;52.370;4.832;2023-05-10T00:39:49;100910.06;;;11.97;100.00
77452;BME280;66537;52.370;4.832;2023-05-10T00:42:14;100908.00;;;12.06;100.00
77452;BME280;66537;52.370;4.832;2023-05-10T00:44:40;100907.00;;;12.10;100.00
77452;BME280;66537;52.370;4.832;2023-05-10T00:47:05;100905.00;;;12.18;100.00
77452;BME280;66537;52.370;4.832;2023-05-10T00:49:30;100908.59;;;12.14;100.00
77452;BME280;66537;52.370;4.832;2023-05-10T00:51:56;100903.97;;;11.98;100.00
77452;BME280;66537;52.370;4.832;2023-05-10T00:54:22;100905.06;;;11.91;100.00
77452;BME280;66537;52.370;4.832;2023-05-10T00:56:47;100912.59;;;11.98;100.00
77452;BME280;66537;52.370;4.832;2023-05-10T00:59:17;100906.56;;;11.98;100.00
77452;BME280;66537;52.370;4.832;2023-05-10T01:01:46;100920.22;;;12.03;100.00
77452;BME280;66537;52.370;4.832;2023-05-10T01:04:13;100916.53;;;12.10;100.00
77452;BME280;66537;52.370;4.832;2023-05-10T01:06:39;100914.22;;;12.01;100.00
77452;BME280;66537;52.370;4.832;2023-05-10T01:09:05;100917.69;;;12.01;100.00
77452;BME280;66537;52.370;4.832;2023-05-10T01:11:32;100924.56;;;12.02;100.00
77452;BME280;66537;52.370;4.832;2023-05-10T01:13:58;100919.22;;;12.07;100.00
77452;BME280;66537;52.370;4.832;2023-05-10T01:16:24;100919.16;;;12.08;100.00
77452;BME280;66537;52.370;4.832;2023-05-10T01:18:51;100926.00;;;12.11;100.00
77452;BME280;66537;52.370;4.832;2023-05-10T01:21:23;100923.09;;;12.20;100.00
77452;BME280;66537;52.370;4.832;2023-05-10T01:29:24;100934.44;;;12.17;100.00
77452;BME280;66537;52.370;4.832;2023-05-10T01:35:10;100928.72;;;12.08;100.00
77452;BME280;66537;52.370;4.832;2023-05-10T01:37:47;100926.59;;;12.19;100.00
77452;BME280;66537;52.370;4.832;2023-05-10T01:40:36;100929.00;;;12.25;100.00
77452;BME280;66537;52.370;4.832;2023-05-10T01:43:04;100925.19;;;12.35;100.00
77452;BME280;66537;52.370;4.832;2023-05-10T01:45:54;100925.34;;;12.30;100.00
77452;BME280;66537;52.370;4.832;2023-05-10T01:48:25;100927.66;;;12.38;100.00
77452;BME280;66537;52.370;4.832;2023-05-10T01:50:53;100930.78;;;12.47;100.00
77452;BME280;66537;52.370;4.832;2023-05-10T01:53:20;100932.72;;;12.41;100.00
77452;BME280;66537;52.370;4.832;2023-05-10T01:55:48;100935.13;;;12.47;100.00
77452;BME280;66537;52.370;4.832;2023-05-10T01:58:17;100929.78;;;12.51;100.00
77452;BME280;66537;52.370;4.832;2023-05-10T02:00:44;100933.16;;;12.53;100.00
77452;BME280;66537;52.370;4.832;2023-05-10T02:03:11;100934.91;;;12.53;100.00
77452;BME280;66537;52.370;4.832;2023-05-10T02:05:38;100930.31;;;12.36;100.00
77452;BME280;66537;52.370;4.832;2023-05-10T02:08:08;100940.09;;;12.53;100.00
77452;BME280;66537;52.370;4.832;2023-05-10T02:10:34;100939.56;;;12.43;100.00
77452;BME280;66537;52.370;4.832;2023-05-10T02:13:01;100942.56;;;12.31;100.00
77452;BME280;66537;52.370;4.832;2023-05-10T02:15:28;100949.75;;;12.25;100.00
77452;BME280;66537;52.370;4.832;2023-05-10T02:17:55;100952.81;;;12.36;100.00
77452;BME280;66537;52.370;4.832;2023-05-10T02:20:23;100959.75;;;12.35;100.00
77452;BME280;66537;52.370;4.832;2023-05-10T02:22:51;100957.94;;;12.37;100.00
77452;BME280;66537;52.370;4.832;2023-05-10T02:25:19;100959.91;;;12.31;100.00
77452;BME280;66537;52.370;4.832;2023-05-10T02:27:46;100964.25;;;12.30;100.00
77452;BME280;66537;52.370;4.832;2023-05-10T02:30:12;100968.25;;;12.39;100.00
77452;BME280;66537;52.370;4.832;2023-05-10T02:32:39;100973.22;;;12.20;100.00
77452;BME280;66537;52.370;4.832;2023-05-10T02:35:05;100972.53;;;12.15;100.00
77452;BME280;66537;52.370;4.832;2023-05-10T02:37:32;100969.88;;;12.17;100.00
77452;BME280;66537;52.370;4.832;2023-05-10T02:39:58;100968.44;;;12.08;100.00
77452;BME280;66537;52.370;4.832;2023-05-10T02:42:26;100974.72;;;12.01;100.00
77452;BME280;66537;52.370;4.832;2023-05-10T02:44:57;100980.78;;;12.02;100.00
77452;BME280;66537;52.370;4.832;2023-05-10T02:47:24;100977.25;;;12.03;100.00
77452;BME280;66537;52.370;4.832;2023-05-10T02:49:49;100980.00;;;11.98;100.00
77452;BME280;66537;52.370;4.832;2023-05-10T02:52:23;100981.75;;;11.98;100.00
77452;BME280;66537;52.370;4.832;2023-05-10T02:54:51;100985.59;;;11.86;100.00
77452;BME280;66537;52.370;4.832;2023-05-10T02:57:22;100975.78;;;11.96;100.00
77452;BME280;66537;52.370;4.832;2023-05-10T02:59:50;100981.84;;;11.95;100.00
77452;BME280;66537;52.370;4.832;2023-05-10T03:02:15;100974.03;;;11.96;100.00
77452;BME280;66537;52.370;4.832;2023-05-10T03:04:41;100986.50;;;12.11;100.00
77452;BME280;66537;52.370;4.832;2023-05-10T03:07:07;100975.94;;;12.17;100.00
77452;BME280;66537;52.370;4.832;2023-05-10T03:09:33;100979.72;;;12.07;100.00
77452;BME280;66537;52.370;4.832;2023-05-10T03:12:11;100984.16;;;12.04;100.00
77452;BME280;66537;52.370;4.832;2023-05-10T03:15:00;100976.19;;;12.10;100.00
77452;BME280;66537;52.370;4.832;2023-05-10T03:20:10;100982.84;;;11.61;100.00
77452;BME280;66537;52.370;4.832;2023-05-10T03:22:41;100986.78;;;11.47;100.00
77452;BME280;66537;52.370;4.832;2023-05-10T03:25:10;100988.28;;;11.54;100.00
77452;BME280;66537;52.370;4.832;2023-05-10T03:27:39;100983.69;;;11.34;100.00
77452;BME280;66537;52.370;4.832;2023-05-10T03:30:08;100988.28;;;11.54;100.00
77452;BME280;66537;52.370;4.832;2023-05-10T03:32:34;100994.31;;;11.54;100.00
77452;BME280;66537;52.370;4.832;2023-05-10T03:34:59;100992.63;;;11.53;100.00
77452;BME280;66537;52.370;4.832;2023-05-10T03:37:25;100996.56;;;11.37;100.00
77452;BME280;66537;52.370;4.832;2023-05-10T03:39:50;100997.72;;;11.27;100.00
77452;BME280;66537;52.370;4.832;2023-05-10T03:42:15;100990.81;;;11.28;100.00
77452;BME280;66537;52.370;4.832;2023-05-10T03:44:42;100999.38;;;11.30;100.00
77452;BME280;66537;52.370;4.832;2023-05-10T03:47:08;101004.59;;;11.28;100.00
77452;BME280;66537;52.370;4.832;2023-05-10T03:49:33;100997.25;;;11.44;100.00
77452;BME280;66537;52.370;4.832;2023-05-10T03:51:59;101004.84;;;11.48;100.00
77452;BME280;66537;52.370;4.832;2023-05-10T03:54:24;100996.38;;;11.43;100.00
77452;BME280;66537;52.370;4.832;2023-05-10T03:56:49;101002.31;;;11.47;100.00
77452;BME280;66537;52.370;4.832;2023-05-10T03:59:15;100999.03;;;11.40;100.00
77452;BME280;66537;52.370;4.832;2023-05-10T04:01:40;101004.41;;;11.34;100.00
77452;BME280;66537;52.370;4.832;2023-05-10T04:04:05;101007.63;;;11.42;100.00
77452;BME280;66537;52.370;4.832;2023-05-10T04:06:31;101010.78;;;11.52;100.00
77452;BME280;66537;52.370;4.832;2023-05-10T04:08:57;101000.28;;;11.56;100.00
77452;BME280;66537;52.370;4.832;2023-05-10T04:11:24;101008.47;;;11.43;100.00
77452;BME280;66537;52.370;4.832;2023-05-10T04:13:50;100999.53;;;11.53;100.00
77452;BME280;66537;52.370;4.832;2023-05-10T04:16:15;101006.56;;;11.49;100.00
77452;BME280;66537;52.370;4.832;2023-05-10T04:18:40;101008.69;;;11.64;100.00
77452;BME280;66537;52.370;4.832;2023-05-10T04:21:14;101010.34;;;11.68;100.00
77452;BME280;66537;52.370;4.832;2023-05-10T04:23:39;101012.22;;;11.62;100.00
77452;BME280;66537;52.370;4.832;2023-05-10T04:26:05;101011.94;;;11.72;100.00
77452;BME280;66537;52.370;4.832;2023-05-10T04:28:31;101006.94;;;11.66;100.00
77452;BME280;66537;52.370;4.832;2023-05-10T04:31:07;101011.66;;;11.52;100.00
77452;BME280;66537;52.370;4.832;2023-05-10T04:33:33;101015.47;;;11.70;100.00
77452;BME280;66537;52.370;4.832;2023-05-10T04:35:59;101012.56;;;11.81;100.00
77452;BME280;66537;52.370;4.832;2023-05-10T04:38:24;101017.94;;;11.73;100.00
77452;BME280;66537;52.370;4.832;2023-05-10T04:40:50;101014.09;;;11.86;100.00
77452;BME280;66537;52.370;4.832;2023-05-10T04:43:15;101019.78;;;11.69;100.00
77452;BME280;66537;52.370;4.832;2023-05-10T04:45:41;101023.94;;;11.75;100.00
77452;BME280;66537;52.370;4.832;2023-05-10T04:48:06;101018.75;;;11.75;100.00
77452;BME280;66537;52.370;4.832;2023-05-10T04:50:32;101015.03;;;11.84;100.00
77452;BME280;66537;52.370;4.832;2023-05-10T04:52:57;101025.28;;;11.88;99.86
77452;BME280;66537;52.370;4.832;2023-05-10T04:55:23;101030.66;;;11.82;100.00
77452;BME280;66537;52.370;4.832;2023-05-10T04:57:48;101034.16;;;11.79;100.00
77452;BME280;66537;52.370;4.832;2023-05-10T05:00:14;101023.09;;;11.74;100.00
77452;BME280;66537;52.370;4.832;2023-05-10T05:02:42;101033.25;;;11.82;100.00
77452;BME280;66537;52.370;4.832;2023-05-10T05:05:09;101040.66;;;11.93;99.42
77452;BME280;66537;52.370;4.832;2023-05-10T05:07:34;101036.00;;;11.76;99.28
77452;BME280;66537;52.370;4.832;2023-05-10T05:09:59;101039.41;;;11.78;99.76
77452;BME280;66537;52.370;4.832;2023-05-10T05:12:25;101037.84;;;11.72;99.97
77452;BME280;66537;52.370;4.832;2023-05-10T05:14:50;101038.66;;;11.74;100.00
77452;BME280;66537;52.370;4.832;2023-05-10T05:17:15;101039.41;;;11.78;99.56
77452;BME280;66537;52.370;4.832;2023-05-10T05:19:41;101039.91;;;11.89;99.49
77452;BME280;66537;52.370;4.832;2023-05-10T05:22:06;101045.53;;;12.03;99.07
77452;BME280;66537;52.370;4.832;2023-05-10T05:24:36;101052.75;;;11.94;97.86
77452;BME280;66537;52.370;4.832;2023-05-10T05:27:04;101052.88;;;11.89;98.47
77452;BME280;66537;52.370;4.832;2023-05-10T05:29:30;101061.16;;;12.00;98.39
77452;BME280;66537;52.370;4.832;2023-05-10T05:31:56;101066.16;;;12.08;98.42
77452;BME280;66537;52.370;4.832;2023-05-10T05:34:21;101070.44;;;12.09;98.01
77452;BME280;66537;52.370;4.832;2023-05-10T05:36:47;101071.53;;;12.02;97.91
77452;BME280;66537;52.370;4.832;2023-05-10T05:39:13;101066.72;;;12.17;97.82
77452;BME280;66537;52.370;4.832;2023-05-10T05:41:38;101072.22;;;12.34;97.71
77452;BME280;66537;52.370;4.832;2023-05-10T05:44:03;101072.16;;;12.36;96.44
77452;BME280;66537;52.370;4.832;2023-05-10T05:46:29;101075.50;;;12.39;96.18
77452;BME280;66537;52.370;4.832;2023-05-10T05:48:54;101083.09;;;12.18;97.49
77452;BME280;66537;52.370;4.832;2023-05-10T05:51:19;101083.56;;;12.30;97.46
77452;BME280;66537;52.370;4.832;2023-05-10T05:53:45;101076.53;;;12.34;96.54
77452;BME280;66537;52.370;4.832;2023-05-10T05:56:10;101080.78;;;12.36;97.03
77452;BME280;66537;52.370;4.832;2023-05-10T05:58:36;101087.16;;;12.26;97.71
77452;BME280;66537;52.370;4.832;2023-05-10T06:01:01;101089.09;;;12.20;97.05
77452;BME280;66537;52.370;4.832;2023-05-10T06:03:26;101084.25;;;12.35;96.62
77452;BME280;66537;52.370;4.832;2023-05-10T06:05:51;101088.09;;;12.24;96.44
77452;BME280;66537;52.370;4.832;2023-05-10T06:08:17;101088.41;;;12.41;96.49
77452;BME280;66537;52.370;4.832;2023-05-10T06:10:42;101093.16;;;12.54;96.05
77452;BME280;66537;52.370;4.832;2023-05-10T06:13:08;101092.56;;;12.46;96.22
77452;BME280;66537;52.370;4.832;2023-05-10T06:15:33;101088.19;;;12.48;95.62
77452;BME280;66537;52.370;4.832;2023-05-10T06:17:59;101083.81;;;12.49;96.35
77452;BME280;66537;52.370;4.832;2023-05-10T06:20:25;101093.13;;;12.56;96.19
77452;BME280;66537;52.370;4.832;2023-05-10T06:22:50;101095.03;;;12.76;95.18
77452;BME280;66537;52.370;4.832;2023-05-10T06:25:15;101093.69;;;12.64;95.31
77452;BME280;66537;52.370;4.832;2023-05-10T06:27:43;101092.56;;;12.46;95.12
77452;BME280;66537;52.370;4.832;2023-05-10T06:30:09;101092.31;;;12.54;94.13
77452;BME280;66537;52.370;4.832;2023-05-10T06:32:34;101097.84;;;12.43;95.18
77452;BME280;66537;52.370;4.832;2023-05-10T06:35:00;101104.69;;;12.46;95.71
77452;BME280;66537;52.370;4.832;2023-05-10T06:37:25;101104.25;;;12.59;96.09
77452;BME280;66537;52.370;4.832;2023-05-10T06:39:50;101112.22;;;12.53;94.30
77452;BME280;66537;52.370;4.832;2023-05-10T06:42:16;101113.88;;;12.82;94.85
77452;BME280;66537;52.370;4.832;2023-05-10T06:44:41;101102.34;;;12.89;94.24
77452;BME280;66537;52.370;4.832;2023-05-10T06:47:07;101114.81;;;12.80;93.34
77452;BME280;66537;52.370;4.832;2023-05-10T06:49:32;101110.59;;;12.76;93.58
77452;BME280;66537;52.370;4.832;2023-05-10T06:51:58;101113.00;;;12.82;93.60
77452;BME280;66537;52.370;4.832;2023-05-10T06:54:23;101110.78;;;12.71;93.90
77452;BME280;66537;52.370;4.832;2023-05-10T06:56:48;101112.91;;;12.60;94.45
77452;BME280;66537;52.370;4.832;2023-05-10T06:59:14;101119.50;;;12.68;93.89
77452;BME280;66537;52.370;4.832;2023-05-10T07:01:41;101118.50;;;12.73;93.65
77452;BME280;66537;52.370;4.832;2023-05-10T07:04:06;101124.16;;;12.85;93.59
77452;BME280;66537;52.370;4.832;2023-05-10T07:06:32;101126.09;;;13.05;91.93
77452;BME280;66537;52.370;4.832;2023-05-10T07:08:58;101124.16;;;13.11;90.00
77452;BME280;66537;52.370;4.832;2023-05-10T07:11:24;101121.66;;;13.08;89.93
77452;BME280;66537;52.370;4.832;2023-05-10T07:13:49;101124.22;;;13.10;90.47
77452;BME280;66537;52.370;4.832;2023-05-10T07:16:14;101133.16;;;13.26;90.80
77452;BME280;66537;52.370;4.832;2023-05-10T07:18:40;101132.19;;;13.28;90.96
77452;BME280;66537;52.370;4.832;2023-05-10T07:21:05;101129.06;;;13.19;89.41
77452;BME280;66537;52.370;4.832;2023-05-10T07:23:31;101131.56;;;13.46;89.25
77452;BME280;66537;52.370;4.832;2023-05-10T07:25:56;101132.78;;;13.36;88.32
77452;BME280;66537;52.370;4.832;2023-05-10T07:28:22;101137.28;;;13.56;88.41
77452;BME280;66537;52.370;4.832;2023-05-10T07:30:48;101141.44;;;13.37;88.47
77452;BME280;66537;52.370;4.832;2023-05-10T07:33:14;101137.22;;;13.57;88.32
77452;BME280;66537;52.370;4.832;2023-05-10T07:35:40;101140.44;;;13.64;88.97
77452;BME280;66537;52.370;4.832;2023-05-10T07:38:06;101141.41;;;13.62;88.32
77452;BME280;66537;52.370;4.832;2023-05-10T07:40:31;101140.44;;;13.41;89.02
77452;BME280;66537;52.370;4.832;2023-05-10T07:42:57;101138.06;;;13.58;89.86
77452;BME280;66537;52.370;4.832;2023-05-10T07:45:23;101138.75;;;13.63;87.43
77452;BME280;66537;52.370;4.832;2023-05-10T07:47:48;101142.41;;;13.57;87.93
77452;BME280;66537;52.370;4.832;2023-05-10T07:50:14;101149.81;;;14.37;87.79
77452;BME280;66537;52.370;4.832;2023-05-10T07:52:39;101142.22;;;14.75;85.02
77452;BME280;66537;52.370;4.832;2023-05-10T07:55:05;101148.50;;;14.69;82.49
77452;BME280;66537;52.370;4.832;2023-05-10T07:57:33;101148.47;;;14.71;84.42
77452;BME280;66537;52.370;4.832;2023-05-10T07:59:58;101155.50;;;14.47;84.65
77452;BME280;66537;52.370;4.832;2023-05-10T08:02:23;101153.84;;;14.66;82.78
77452;BME280;66537;52.370;4.832;2023-05-10T08:04:49;101151.25;;;14.66;81.60
77452;BME280;66537;52.370;4.832;2023-05-10T08:07:14;101151.94;;;14.91;81.67
77452;BME280;66537;52.370;4.832;2023-05-10T08:09:39;101150.63;;;14.81;80.15
77452;BME280;66537;52.370;4.832;2023-05-10T08:12:05;101157.78;;;14.96;81.53
77452;BME280;66537;52.370;4.832;2023-05-10T08:14:30;101157.84;;;14.75;82.22
77452;BME280;66537;52.370;4.832;2023-05-10T08:16:56;101160.19;;;14.81;81.69
77452;BME280;66537;52.370;4.832;2023-05-10T08:19:21;101169.47;;;14.66;80.78
77452;BME280;66537;52.370;4.832;2023-05-10T08:21:48;101168.44;;;14.70;82.89
77452;BME280;66537;52.370;4.832;2023-05-10T08:24:13;101166.63;;;14.72;81.91
77452;BME280;66537;52.370;4.832;2023-05-10T08:26:38;101181.72;;;14.64;81.78
77452;BME280;66537;52.370;4.832;2023-05-10T08:29:04;101179.03;;;14.66;81.12
77452;BME280;66537;52.370;4.832;2023-05-10T08:31:29;101180.75;;;14.67;82.22
77452;BME280;66537;52.370;4.832;2023-05-10T08:33:54;101182.97;;;14.54;82.13
77452;BME280;66537;52.370;4.832;2023-05-10T08:36:20;101192.06;;;14.66;81.01
77452;BME280;66537;52.370;4.832;2023-05-10T08:38:50;101186.25;;;14.59;80.55
77452;BME280;66537;52.370;4.832;2023-05-10T08:41:19;101191.81;;;14.72;80.59
77452;BME280;66537;52.370;4.832;2023-05-10T08:43:46;101187.84;;;15.05;80.12
77452;BME280;66537;52.370;4.832;2023-05-10T08:46:15;101194.59;;;14.89;80.00
77452;BME280;66537;52.370;4.832;2023-05-10T08:48:43;101193.84;;;15.07;79.80
77452;BME280;66537;52.370;4.832;2023-05-10T08:51:09;101208.19;;;15.37;79.54
77452;BME280;66537;52.370;4.832;2023-05-10T08:53:37;101197.34;;;15.48;78.35
77452;BME280;66537;52.370;4.832;2023-05-10T08:56:03;101197.44;;;15.24;78.31
77452;BME280;66537;52.370;4.832;2023-05-10T08:58:28;101199.09;;;15.27;77.77
77452;BME280;66537;52.370;4.832;2023-05-10T09:00:54;101208.75;;;16.04;75.52
77452;BME280;66537;52.370;4.832;2023-05-10T09:03:20;101203.75;;;16.91;74.41
77452;BME280;66537;52.370;4.832;2023-05-10T09:05:46;101209.94;;;16.71;71.14
77452;BME280;66537;52.370;4.832;2023-05-10T09:08:12;101211.44;;;16.58;72.52
77452;BME280;66537;52.370;4.832;2023-05-10T09:10:39;101210.28;;;16.26;73.10
77452;BME280;66537;52.370;4.832;2023-05-10T09:13:05;101215.78;;;16.02;73.55
77452;BME280;66537;52.370;4.832;2023-05-10T09:15:32;101218.72;;;15.56;75.34
77452;BME280;66537;52.370;4.832;2023-05-10T09:17:57;101223.81;;;15.37;75.49
77452;BME280;66537;52.370;4.832;2023-05-10T09:20:24;101225.69;;;15.55;76.93
77452;BME280;66537;52.370;4.832;2023-05-10T09:22:49;101236.16;;;15.33;76.46
77452;BME280;66537;52.370;4.832;2023-05-10T09:25:16;101238.75;;;15.33;77.63
77452;BME280;66537;52.370;4.832;2023-05-10T09:27:45;101235.59;;;15.05;77.36
77452;BME280;66537;52.370;4.832;2023-05-10T09:30:15;101234.19;;;14.97;79.06
77452;BME280;66537;52.370;4.832;2023-05-10T09:32:45;101235.34;;;15.11;78.97
77452;BME280;66537;52.370;4.832;2023-05-10T09:37:41;101245.88;;;14.87;80.15
77452;BME280;66537;52.370;4.832;2023-05-10T09:40:08;101239.91;;;14.85;80.06
77452;BME280;66537;52.370;4.832;2023-05-10T09:42:36;101246.03;;;14.84;80.10
77452;BME280;66537;52.370;4.832;2023-05-10T09:45:05;101244.63;;;14.97;79.01
77452;BME280;66537;52.370;4.832;2023-05-10T09:47:32;101245.50;;;15.59;77.18
77452;BME280;66537;52.370;4.832;2023-05-10T09:49:59;101249.00;;;15.98;74.67
77452;BME280;66537;52.370;4.832;2023-05-10T09:52:29;101245.44;;;16.38;72.32
77452;BME280;66537;52.370;4.832;2023-05-10T09:54:54;101244.25;;;16.64;71.56
77452;BME280;66537;52.370;4.832;2023-05-10T09:57:21;101249.16;;;16.53;71.05
77452;BME280;66537;52.370;4.832;2023-05-10T09:59:48;101240.16;;;16.58;71.58
77452;BME280;66537;52.370;4.832;2023-05-10T10:02:13;101241.47;;;16.67;71.50
77452;BME280;66537;52.370;4.832;2023-05-10T10:04:40;101250.75;;;16.74;70.69
77452;BME280;66537;52.370;4.832;2023-05-10T10:07:06;101248.22;;;16.54;71.72
77452;BME280;66537;52.370;4.832;2023-05-10T10:09:32;101247.81;;;16.98;71.01
77452;BME280;66537;52.370;4.832;2023-05-10T10:11:59;101249.06;;;17.08;70.95
77452;BME280;66537;52.370;4.832;2023-05-10T10:14:25;101258.88;;;17.03;70.07
77452;BME280;66537;52.370;4.832;2023-05-10T10:16:51;101255.84;;;16.94;70.19
77452;BME280;66537;52.370;4.832;2023-05-10T10:19:20;101260.13;;;16.78;71.53
77452;BME280;66537;52.370;4.832;2023-05-10T10:21:46;101263.25;;;16.86;72.86
77452;BME280;66537;52.370;4.832;2023-05-10T10:24:11;101260.78;;;17.00;72.82
77452;BME280;66537;52.370;4.832;2023-05-10T10:26:37;101264.22;;;16.46;72.74
77452;BME280;66537;52.370;4.832;2023-05-10T10:29:23;101264.13;;;16.48;73.22
77452;BME280;66537;52.370;4.832;2023-05-10T10:32:01;101259.09;;;16.06;73.18
77452;BME280;66537;52.370;4.832;2023-05-10T10:34:29;101257.69;;;15.79;74.00
77452;BME280;66537;52.370;4.832;2023-05-10T10:36:56;101270.81;;;15.77;75.69
77452;BME280;66537;52.370;4.832;2023-05-10T10:39:24;101272.22;;;15.64;77.30
77452;BME280;66537;52.370;4.832;2023-05-10T10:52:28;101277.06;;;15.11;78.38
77452;BME280;66537;52.370;4.832;2023-05-10T11:00:33;101277.84;;;15.13;78.38
77452;BME280;66537;52.370;4.832;2023-05-10T11:03:11;101277.34;;;15.04;79.62
77452;BME280;66537;52.370;4.832;2023-05-10T11:05:47;101273.59;;;15.11;78.56
77452;BME280;66537;52.370;4.832;2023-05-10T11:08:26;101278.66;;;15.14;79.66
77452;BME280;66537;52.370;4.832;2023-05-10T11:15:54;101287.75;;;14.37;83.31
77452;BME280;66537;52.370;4.832;2023-05-10T11:18:29;101288.94;;;14.52;83.00
77452;BME280;66537;52.370;4.832;2023-05-10T11:20:58;101290.97;;;14.67;83.10
77452;BME280;66537;52.370;4.832;2023-05-10T11:23:30;101289.13;;;14.92;83.59
77452;BME280;66537;52.370;4.832;2023-05-10T11:25:56;101289.38;;;15.28;82.25
77452;BME280;66537;52.370;4.832;2023-05-10T11:28:21;101292.25;;;15.44;80.34
77452;BME280;66537;52.370;4.832;2023-05-10T11:30:47;101289.44;;;15.68;78.82
77452;BME280;66537;52.370;4.832;2023-05-10T11:33:17;101292.50;;;16.18;77.71
77452;BME280;66537;52.370;4.832;2023-05-10T11:35:43;101296.94;;;16.16;76.98
77452;BME280;66537;52.370;4.832;2023-05-10T11:38:11;101296.34;;;16.48;75.50
77452;BME280;66537;52.370;4.832;2023-05-10T11:40:38;101307.94;;;16.80;76.48
77452;BME280;66537;52.370;4.832;2023-05-10T11:43:04;101297.91;;;16.89;73.26
77452;BME280;66537;52.370;4.832;2023-05-10T11:45:34;101298.47;;;16.77;73.44
77452;BME280;66537;52.370;4.832;2023-05-10T11:48:00;101294.00;;;16.98;71.77
77452;BME280;66537;52.370;4.832;2023-05-10T11:50:26;101295.59;;;16.83;71.14
77452;BME280;66537;52.370;4.832;2023-05-10T11:52:53;101299.88;;;16.84;70.80
77452;BME280;66537;52.370;4.832;2023-05-10T11:55:19;101298.81;;;16.88;70.89
77452;BME280;66537;52.370;4.832;2023-05-10T11:57:44;101305.19;;;16.64;71.98
77452;BME280;66537;52.370;4.832;2023-05-10T12:00:12;101311.63;;;16.37;73.30
77452;BME280;66537;52.370;4.832;2023-05-10T12:02:37;101308.78;;;16.62;72.22
77452;BME280;66537;52.370;4.832;2023-05-10T12:05:04;101309.91;;;16.75;71.01
77452;BME280;66537;52.370;4.832;2023-05-10T12:07:30;101313.44;;;16.55;71.80
77452;BME280;66537;52.370;4.832;2023-05-10T12:10:12;101313.06;;;16.44;71.47
77452;BME280;66537;52.370;4.832;2023-05-10T12:12:45;101311.75;;;16.15;73.22
77452;BME280;66537;52.370;4.832;2023-05-10T12:15:23;101319.75;;;16.31;73.67
77452;BME280;66537;52.370;4.832;2023-05-10T12:17:49;101323.63;;;16.02;73.62
77452;BME280;66537;52.370;4.832;2023-05-10T12:20:15;101323.53;;;16.24;75.34
77452;BME280;66537;52.370;4.832;2023-05-10T12:22:44;101320.78;;;16.27;74.05
77452;BME280;66537;52.370;4.832;2023-05-10T12:25:10;101326.88;;;16.46;73.23
77452;BME280;66537;52.370;4.832;2023-05-10T12:27:35;101327.28;;;16.57;72.36
77452;BME280;66537;52.370;4.832;2023-05-10T12:30:02;101325.09;;;16.85;70.55
77452;BME280;66537;52.370;4.832;2023-05-10T12:32:38;101325.81;;;17.25;71.07
77452;BME280;66537;52.370;4.832;2023-05-10T12:35:04;101326.78;;;17.58;68.73
77452;BME280;66537;52.370;4.832;2023-05-10T12:37:29;101324.69;;;17.47;70.55
77452;BME280;66537;52.370;4.832;2023-05-10T12:39:55;101320.97;;;17.53;69.40
77452;BME280;66537;52.370;4.832;2023-05-10T12:42:20;101326.38;;;16.95;69.85
77452;BME280;66537;52.370;4.832;2023-05-10T12:44:45;101328.94;;;17.14;71.56
77452;BME280;66537;52.370;4.832;2023-05-10T12:47:11;101327.88;;;17.54;70.79
77452;BME280;66537;52.370;4.832;2023-05-10T12:49:36;101329.16;;;17.45;68.54
77452;BME280;66537;52.370;4.832;2023-05-10T12:52:01;101329.03;;;17.48;68.73
77452;BME280;66537;52.370;4.832;2023-05-10T12:54:27;101325.28;;;17.35;68.76
77452;BME280;66537;52.370;4.832;2023-05-10T12:56:52;101333.81;;;17.22;69.15
77452;BME280;66537;52.370;4.832;2023-05-10T12:59:18;101334.25;;;17.12;70.94
77452;BME280;66537;52.370;4.832;2023-05-10T13:01:43;101332.53;;;17.11;69.86
77452;BME280;66537;52.370;4.832;2023-05-10T13:04:08;101336.13;;;17.63;70.44
77452;BME280;66537;52.370;4.832;2023-05-10T13:06:34;101341.75;;;17.90;67.23
77452;BME280;66537;52.370;4.832;2023-05-10T13:09:00;101340.91;;;17.89;65.82
77452;BME280;66537;52.370;4.832;2023-05-10T13:11:25;101338.19;;;17.57;66.41
77452;BME280;66537;52.370;4.832;2023-05-10T13:13:51;101345.72;;;17.46;67.33
77452;BME280;66537;52.370;4.832;2023-05-10T13:16:16;101345.53;;;17.13;69.47
77452;BME280;66537;52.370;4.832;2023-05-10T13:18:42;101351.72;;;16.93;69.39